Time;durP1;ratioP1;P1;durP2;ratioP2;P2;SDS_P1;SDS_P2;PMS_P1;PMS_P2;Temp;Humidity;BMP_temperature;BMP_pressure;BME280_temperature;BME280_humidity;BME280_pressure;Samples;Min_cycle;Max_cycle;Signal;HPM_P1;HPM_P2
2021/08/19 00:00:48;;;;;;;2.83;1.00;;;18.90;99.90;;;;;;5091201;28;20024;-72
2021/08/19 00:03:13;;;;;;;1.48;0.93;;;18.90;99.90;;;;;;5090542;28;20073;-73
2021/08/19 00:05:39;;;;;;;1.30;0.90;;;18.90;99.90;;;;;;5090257;28;20031;-73
2021/08/19 00:08:05;;;;;;;2.72;1.25;;;18.90;99.90;;;;;;5091166;28;20055;-72
2021/08/19 00:10:31;;;;;;;1.98;1.00;;;18.90;99.90;;;;;;5091791;28;20061;-73
2021/08/19 00:12:58;;;;;;;1.80;0.93;;;18.90;99.90;;;;;;5090885;28;20028;-73
2021/08/19 00:15:24;;;;;;;1.70;1.23;;;18.80;99.90;;;;;;5090353;28;20020;-72
2021/08/19 00:17:49;;;;;;;5.22;1.10;;;18.80;99.90;;;;;;5090920;28;20016;-72
2021/08/19 00:20:16;;;;;;;1.88;1.20;;;18.90;99.90;;;;;;5089981;28;20039;-72
2021/08/19 00:22:41;;;;;;;2.38;1.00;;;18.80;99.90;;;;;;5089930;28;20040;-72
2021/08/19 00:25:08;;;;;;;2.97;1.00;;;18.80;99.90;;;;;;5092306;28;20409;-72
2021/08/19 00:27:33;;;;;;;3.30;1.63;;;18.80;99.90;;;;;;5089642;28;20016;-72
2021/08/19 00:29:59;;;;;;;1.38;1.05;;;18.70;99.90;;;;;;5092064;28;20098;-71
2021/08/19 00:32:25;;;;;;;1.70;1.45;;;18.70;99.90;;;;;;5089879;28;20035;-73
2021/08/19 00:34:51;;;;;;;7.35;1.33;;;18.80;99.90;;;;;;5090430;28;20023;-72
2021/08/19 00:37:16;;;;;;;3.50;1.00;;;18.80;99.90;;;;;;5091702;28;20081;-73
2021/08/19 00:39:46;;;;;;;0.95;0.80;;;18.70;99.90;;;;;;5089448;28;20020;-72
2021/08/19 00:42:16;;;;;;;1.88;1.20;;;18.80;99.90;;;;;;5091371;28;20032;-73
2021/08/19 00:44:43;;;;;;;2.72;1.20;;;18.70;99.90;;;;;;5089919;28;20036;-72
2021/08/19 00:47:12;;;;;;;2.25;0.88;;;18.80;99.90;;;;;;5090081;28;20064;-73
2021/08/19 00:49:42;;;;;;;2.10;0.90;;;18.80;99.90;;;;;;5089682;28;20024;-72
2021/08/19 00:52:09;;;;;;;2.60;0.93;;;18.70;99.90;;;;;;5092007;28;20105;-72
2021/08/19 00:54:36;;;;;;;2.35;1.45;;;18.70;99.90;;;;;;5090852;28;20099;-73
2021/08/19 00:57:04;;;;;;;1.35;1.02;;;18.70;99.90;;;;;;5089648;28;20055;-72
2021/08/19 00:59:36;;;;;;;1.45;1.00;;;18.70;99.90;;;;;;5090666;28;20081;-72
2021/08/19 01:02:02;;;;;;;;;;;18.70;99.90;;;;;;5090603;28;20127;-72
2021/08/19 01:04:32;;;;;;;1.63;1.00;;;18.60;99.90;;;;;;5089457;28;19987;-72
2021/08/19 01:07:01;;;;;;;1.10;0.95;;;18.60;99.90;;;;;;5091476;28;20066;-72
2021/08/19 01:09:28;;;;;;;2.15;1.05;;;18.70;99.90;;;;;;5090445;28;20486;-73
2021/08/19 01:11:53;;;;;;;1.67;1.10;;;18.60;99.90;;;;;;5091081;28;20024;-72
2021/08/19 01:14:19;;;;;;;1.33;1.20;;;18.60;99.90;;;;;;5091413;28;20077;-72
2021/08/19 01:16:45;;;;;;;2.15;0.75;;;18.60;99.90;;;;;;5091046;28;20020;-72
2021/08/19 01:19:16;;;;;;;1.13;0.95;;;18.50;99.90;;;;;;5091280;28;20513;-72
2021/08/19 01:21:42;;;;;;;2.08;1.25;;;18.60;99.90;;;;;;5088734;28;20662;-72
2021/08/19 01:24:08;;;;;;;7.78;2.85;;;18.60;99.90;;;;;;5091190;28;20032;-72
2021/08/19 01:26:34;;;;;;;3.00;1.00;;;18.60;99.90;;;;;;5090715;28;20530;-73
2021/08/19 01:29:04;;;;;;;4.43;0.93;;;18.50;99.90;;;;;;5089932;28;20030;-71
2021/08/19 01:31:31;;;;;;;2.30;1.33;;;18.50;99.90;;;;;;5090241;28;20027;-72
2021/08/19 01:33:57;;;;;;;1.23;1.00;;;18.50;99.90;;;;;;5090751;28;20051;-72
2021/08/19 01:36:23;;;;;;;1.77;0.70;;;18.50;99.90;;;;;;5089619;28;20031;-72
2021/08/19 01:38:50;;;;;;;2.40;1.70;;;18.50;99.90;;;;;;5089635;28;20322;-72
2021/08/19 01:41:16;;;;;;;1.70;1.08;;;18.60;99.90;;;;;;5091044;28;20024;-72
2021/08/19 01:43:45;;;;;;;1.83;1.00;;;18.50;99.90;;;;;;5089049;28;20035;-72
2021/08/19 01:46:12;;;;;;;1.05;0.93;;;18.50;99.90;;;;;;5089458;28;20020;-72
2021/08/19 01:48:41;;;;;;;1.02;0.80;;;18.50;99.90;;;;;;5090277;28;20027;-72
2021/08/19 01:51:09;;;;;;;1.67;1.25;;;18.50;99.90;;;;;;5089228;28;20032;-72
2021/08/19 01:53:35;;;;;;;1.48;1.27;;;18.40;99.90;;;;;;5090455;28;20035;-72
2021/08/19 01:56:01;;;;;;;2.97;1.67;;;18.50;99.90;;;;;;5089470;28;20024;-72
2021/08/19 01:58:27;;;;;;;1.63;1.20;;;18.50;99.90;;;;;;5088627;28;20021;-72
2021/08/19 02:00:53;;;;;;;2.10;1.38;;;18.40;99.90;;;;;;5091021;28;20026;-72
2021/08/19 02:03:19;;;;;;;1.23;1.02;;;18.40;99.90;;;;;;5090908;28;20047;-72
2021/08/19 02:05:48;;;;;;;2.80;0.85;;;18.40;99.90;;;;;;5090701;28;20782;-72
2021/08/19 02:08:15;;;;;;;1.75;1.10;;;18.40;99.90;;;;;;5089336;28;20030;-71
2021/08/19 02:10:42;;;;;;;1.98;1.00;;;18.40;99.90;;;;;;5089781;28;20031;-71
2021/08/19 02:13:08;;;;;;;1.95;1.00;;;18.40;99.90;;;;;;5090896;28;20073;-71
2021/08/19 02:15:33;;;;;;;1.95;1.25;;;18.40;99.90;;;;;;5088505;28;20020;-72
2021/08/19 02:17:59;;;;;;;2.00;1.33;;;18.40;99.90;;;;;;5090284;28;20344;-72
2021/08/19 02:20:25;;;;;;;1.15;1.05;;;18.40;99.90;;;;;;5092188;28;20059;-72
2021/08/19 02:22:56;;;;;;;1.42;1.05;;;18.40;99.90;;;;;;5093842;28;20079;-71
2021/08/19 02:25:22;;;;;;;2.63;1.07;;;18.30;99.90;;;;;;5092743;28;20023;-71
2021/08/19 02:27:47;;;;;;;2.40;1.23;;;18.40;99.90;;;;;;5093219;28;20032;-70
2021/08/19 02:30:13;;;;;;;4.53;1.50;;;18.30;99.90;;;;;;5094226;28;20024;-71
2021/08/19 02:32:39;;;;;;;2.60;1.65;;;18.30;99.90;;;;;;5094004;28;20023;-71
2021/08/19 02:35:05;;;;;;;2.70;1.13;;;18.30;99.90;;;;;;5092806;28;20020;-71
2021/08/19 02:37:31;;;;;;;2.42;1.50;;;18.30;99.90;;;;;;5093469;28;20061;-72
2021/08/19 02:39:56;;;;;;;4.07;1.40;;;18.30;99.90;;;;;;5092608;28;20078;-71
2021/08/19 02:42:22;;;;;;;2.72;1.73;;;18.20;99.90;;;;;;5092428;28;20028;-71
2021/08/19 02:44:47;;;;;;;2.50;1.20;;;18.30;99.90;;;;;;5093499;28;20024;-71
2021/08/19 02:47:13;;;;;;;2.05;1.65;;;18.20;99.90;;;;;;5092273;28;20020;-70
2021/08/19 02:49:39;;;;;;;1.52;1.30;;;18.20;99.90;;;;;;5091849;28;20153;-71
2021/08/19 02:52:05;;;;;;;2.85;1.42;;;18.20;99.90;;;;;;5092482;28;20036;-71
2021/08/19 02:54:30;;;;;;;3.17;1.40;;;18.20;99.90;;;;;;5093475;28;20027;-71
2021/08/19 02:56:56;;;;;;;1.95;1.30;;;18.20;99.90;;;;;;5093829;28;20023;-71
2021/08/19 02:59:22;;;;;;;1.65;1.20;;;18.20;99.90;;;;;;5093427;28;20095;-71
2021/08/19 03:01:47;;;;;;;2.35;1.80;;;18.10;99.90;;;;;;5091484;28;20032;-70
2021/08/19 03:04:13;;;;;;;2.85;1.70;;;18.10;99.90;;;;;;5093180;28;20395;-71
2021/08/19 03:06:38;;;;;;;2.80;1.60;;;18.20;99.90;;;;;;5092533;28;20020;-70
2021/08/19 03:09:04;;;;;;;2.90;1.90;;;18.10;99.90;;;;;;5093472;28;20088;-72
2021/08/19 03:11:30;;;;;;;2.92;1.60;;;18.10;99.90;;;;;;5069889;28;20020;-71
2021/08/19 03:13:55;;;;;;;1.98;1.25;;;18.10;99.90;;;;;;5087014;28;20422;-72
2021/08/19 03:16:21;;;;;;;3.42;1.48;;;18.10;99.90;;;;;;5073211;28;20052;-71
2021/08/19 03:18:46;;;;;;;1.90;1.42;;;18.10;99.90;;;;;;5071817;28;20035;-71
2021/08/19 03:21:12;;;;;;;2.65;1.30;;;18.10;99.90;;;;;;5073586;28;20060;-71
2021/08/19 03:23:38;;;;;;;2.13;1.55;;;18.00;99.90;;;;;;5072325;28;20122;-71
2021/08/19 03:26:05;;;;;;;4.60;2.00;;;18.00;99.90;;;;;;5071411;28;20041;-70
2021/08/19 03:28:31;;;;;;;2.15;1.65;;;18.10;99.90;;;;;;5072258;28;20035;-72
2021/08/19 03:30:58;;;;;;;5.13;2.08;;;18.10;99.90;;;;;;5072545;28;20033;-71
2021/08/19 03:33:24;;;;;;;2.65;1.42;;;18.00;99.90;;;;;;5072728;28;20024;-71
2021/08/19 03:35:51;;;;;;;2.35;1.20;;;17.90;99.90;;;;;;5072134;28;20427;-72
2021/08/19 03:38:16;;;;;;;1.73;1.42;;;17.90;99.90;;;;;;5071136;28;20105;-72
2021/08/19 03:40:42;;;;;;;4.90;2.80;;;17.90;99.90;;;;;;5071628;28;20032;-71
2021/08/19 03:43:08;;;;;;;3.15;1.58;;;17.90;99.90;;;;;;5072234;28;20381;-72
2021/08/19 03:45:33;;;;;;;2.25;1.42;;;17.90;99.90;;;;;;5071947;28;20100;-72
2021/08/19 03:47:59;;;;;;;2.53;1.38;;;17.80;99.90;;;;;;5071062;28;20025;-72
2021/08/19 03:50:25;;;;;;;1.80;1.60;;;17.90;99.90;;;;;;5070898;28;20094;-72
2021/08/19 03:52:51;;;;;;;1.60;1.10;;;17.80;99.90;;;;;;5071983;28;20408;-72
2021/08/19 03:55:17;;;;;;;2.15;1.40;;;17.90;99.90;;;;;;5072596;28;20134;-72
2021/08/19 03:57:42;;;;;;;1.48;1.13;;;17.90;99.90;;;;;;5071738;28;20035;-72
2021/08/19 04:00:09;;;;;;;2.03;1.00;;;17.90;99.90;;;;;;5072250;28;20024;-72
2021/08/19 04:02:34;;;;;;;3.75;1.65;;;17.90;99.90;;;;;;5070263;28;20032;-71
2021/08/19 04:05:00;;;;;;;1.48;1.38;;;17.90;99.90;;;;;;5072212;28;20174;-72
2021/08/19 04:07:26;;;;;;;1.52;1.38;;;17.90;99.90;;;;;;5072073;28;20111;-72
2021/08/19 04:09:51;;;;;;;2.28;1.60;;;17.80;99.90;;;;;;5069918;28;20020;-72
2021/08/19 04:12:17;;;;;;;2.55;1.38;;;17.80;99.90;;;;;;5071566;28;20535;-71
2021/08/19 04:14:43;;;;;;;1.88;1.52;;;17.80;99.90;;;;;;5069926;28;20029;-72
2021/08/19 04:17:08;;;;;;;2.92;1.85;;;17.70;99.90;;;;;;5070558;28;20056;-72
2021/08/19 04:19:34;;;;;;;4.95;1.80;;;17.70;99.90;;;;;;5071079;28;20373;-72
2021/08/19 04:22:00;;;;;;;1.98;1.55;;;17.70;99.90;;;;;;5071028;28;20443;-72
2021/08/19 04:24:25;;;;;;;3.30;1.80;;;17.70;99.90;;;;;;5071644;28;20024;-71
2021/08/19 04:26:51;;;;;;;4.03;2.42;;;17.70;99.90;;;;;;5070758;28;20039;-72
2021/08/19 04:29:16;;;;;;;4.70;2.58;;;17.70;99.90;;;;;;5070233;28;20039;-72
2021/08/19 04:31:42;;;;;;;5.43;2.42;;;17.70;99.90;;;;;;5070818;28;20117;-72
2021/08/19 04:34:08;;;;;;;3.25;2.30;;;17.80;99.90;;;;;;5071779;28;20025;-72
2021/08/19 04:36:35;;;;;;;3.67;2.40;;;17.80;99.90;;;;;;5069952;28;20035;-72
2021/08/19 04:39:01;;;;;;;2.72;1.88;;;17.80;99.90;;;;;;5070175;28;20028;-72
2021/08/19 04:41:27;;;;;;;3.90;2.42;;;17.80;99.90;;;;;;5070818;28;20497;-72
2021/08/19 04:43:52;;;;;;;3.35;2.80;;;17.80;99.90;;;;;;5068427;28;20020;-72
2021/08/19 04:46:18;;;;;;;3.88;2.50;;;17.70;99.90;;;;;;5070068;28;20065;-71
2021/08/19 04:48:44;;;;;;;4.82;2.30;;;17.80;99.90;;;;;;5070590;28;20454;-72
2021/08/19 04:51:09;;;;;;;3.78;2.53;;;17.80;99.90;;;;;;5069968;28;20029;-72
2021/08/19 04:53:36;;;;;;;3.70;2.80;;;17.80;99.90;;;;;;5069998;28;20441;-73
2021/08/19 04:56:02;;;;;;;4.30;2.00;;;17.70;99.90;;;;;;5070704;28;20025;-71
2021/08/19 04:58:28;;;;;;;4.57;2.70;;;17.80;99.90;;;;;;5069745;28;20453;-72
2021/08/19 05:00:54;;;;;;;6.50;2.97;;;17.70;99.90;;;;;;5068937;28;20016;-72
2021/08/19 05:03:20;;;;;;;3.92;2.63;;;17.70;99.90;;;;;;5069008;28;20123;-72
2021/08/19 05:05:46;;;;;;;6.50;2.67;;;17.80;99.90;;;;;;5067762;28;20120;-72
2021/08/19 05:08:12;;;;;;;6.93;2.72;;;17.70;99.90;;;;;;5069473;28;20042;-71
2021/08/19 05:10:38;;;;;;;3.75;2.38;;;17.80;99.90;;;;;;5068463;28;20033;-74
2021/08/19 05:13:03;;;;;;;5.45;2.78;;;17.80;99.90;;;;;;5070132;28;20067;-72
2021/08/19 05:15:29;;;;;;;3.30;2.22;;;17.70;99.90;;;;;;5069378;28;20120;-72
2021/08/19 05:17:55;;;;;;;6.82;3.03;;;17.70;99.90;;;;;;5067940;28;20032;-71
2021/08/19 05:20:21;;;;;;;3.55;2.65;;;17.70;99.90;;;;;;5070335;28;20049;-71
2021/08/19 05:22:47;;;;;;;3.53;2.75;;;17.60;99.90;;;;;;5069729;28;20044;-72
2021/08/19 05:25:12;;;;;;;5.18;3.15;;;17.60;99.90;;;;;;5069238;28;20377;-72
2021/08/19 05:27:38;;;;;;;4.70;2.88;;;17.60;99.90;;;;;;5068322;28;20028;-73
2021/08/19 05:30:05;;;;;;;3.38;2.75;;;17.70;99.90;;;;;;5068636;28;20024;-72
2021/08/19 05:32:31;;;;;;;5.47;3.00;;;17.70;99.90;;;;;;5068764;28;20086;-72
2021/08/19 05:34:56;;;;;;;6.78;2.97;;;17.70;99.90;;;;;;5068290;28;20062;-72
2021/08/19 05:37:22;;;;;;;5.40;2.80;;;17.70;99.90;;;;;;5068937;28;20524;-72
2021/08/19 05:39:48;;;;;;;2.90;2.67;;;17.70;99.90;;;;;;5069387;28;20033;-72
2021/08/19 05:42:14;;;;;;;7.57;2.63;;;17.70;99.90;;;;;;5069758;28;20037;-72
2021/08/19 05:44:39;;;;;;;8.23;3.00;;;17.70;99.90;;;;;;5068095;28;20025;-73
2021/08/19 05:47:08;;;;;;;4.30;2.80;;;17.70;99.90;;;;;;5070500;28;20083;-72
2021/08/19 05:49:41;;;;;;;4.70;2.95;;;17.60;99.90;;;;;;5069571;28;20029;-71
2021/08/19 05:52:07;;;;;;;3.08;2.63;;;17.70;99.90;;;;;;5068776;28;20076;-72
2021/08/19 05:54:35;;;;;;;3.97;2.60;;;17.60;99.90;;;;;;5070412;28;20025;-71
2021/08/19 05:57:01;;;;;;;3.25;2.85;;;17.70;99.90;;;;;;5071943;28;20051;-72
2021/08/19 05:59:27;;;;;;;4.05;3.08;;;17.60;99.90;;;;;;5072303;28;20070;-73
2021/08/19 06:01:52;;;;;;;4.05;2.60;;;17.60;99.90;;;;;;5071586;28;20436;-73
2021/08/19 06:04:18;;;;;;;6.72;2.90;;;17.60;99.90;;;;;;5073646;28;20021;-73
2021/08/19 06:06:45;;;;;;;3.97;2.45;;;17.60;99.90;;;;;;5073347;28;20450;-73
2021/08/19 06:09:12;;;;;;;5.75;3.10;;;17.50;99.90;;;;;;5072354;28;20063;-73
2021/08/19 06:11:37;;;;;;;4.65;3.33;;;17.60;99.90;;;;;;5073452;28;20115;-73
2021/08/19 06:14:03;;;;;;;5.45;2.90;;;17.50;99.90;;;;;;5071599;28;20170;-73
2021/08/19 06:16:29;;;;;;;3.47;3.03;;;17.60;99.90;;;;;;5073695;28;20418;-73
2021/08/19 06:18:56;;;;;;;5.10;3.13;;;17.60;99.90;;;;;;5070873;28;20025;-71
2021/08/19 06:21:22;;;;;;;4.65;3.53;;;17.60;99.90;;;;;;5073059;28;20485;-74
2021/08/19 06:23:48;;;;;;;12.32;4.45;;;17.60;99.90;;;;;;5070544;28;20044;-73
2021/08/19 06:26:14;;;;;;;9.15;3.45;;;17.60;99.90;;;;;;5071526;28;20020;-73
2021/08/19 06:28:39;;;;;;;6.97;3.47;;;17.60;99.90;;;;;;5072836;28;20031;-73
2021/08/19 06:31:05;;;;;;;5.90;3.55;;;17.70;99.90;;;;;;5071157;28;20131;-72
2021/08/19 06:33:31;;;;;;;10.68;4.18;;;17.60;99.90;;;;;;5071606;28;20020;-72
2021/08/19 06:35:56;;;;;;;5.88;3.25;;;17.70;99.90;;;;;;5072653;28;20430;-71
2021/08/19 06:38:22;;;;;;;8.45;3.30;;;17.80;99.90;;;;;;5071231;28;20424;-72
2021/08/19 06:40:48;;;;;;;7.72;3.17;;;17.80;99.90;;;;;;5071974;28;20028;-72
2021/08/19 06:43:14;;;;;;;4.85;3.30;;;17.80;99.90;;;;;;5072893;28;20033;-72
2021/08/19 06:45:39;;;;;;;3.25;2.95;;;17.90;99.90;;;;;;5072218;28;20483;-73
2021/08/19 06:48:05;;;;;;;4.47;3.30;;;17.90;99.90;;;;;;5070750;28;20066;-72
2021/08/19 06:50:31;;;;;;;4.00;2.88;;;18.00;99.90;;;;;;5073475;28;20032;-73
2021/08/19 06:52:56;;;;;;;8.52;3.05;;;18.10;99.90;;;;;;5072093;28;20083;-73
2021/08/19 06:55:22;;;;;;;5.05;3.20;;;18.20;99.90;;;;;;5071041;28;20029;-73
2021/08/19 06:57:48;;;;;;;4.75;2.72;;;18.30;99.90;;;;;;5071744;28;20052;-74
2021/08/19 07:00:14;;;;;;;7.05;3.30;;;18.40;99.90;;;;;;5071724;28;20025;-73
2021/08/19 07:02:40;;;;;;;5.15;3.40;;;18.50;99.90;;;;;;5071575;28;20037;-73
2021/08/19 07:05:07;;;;;;;5.53;3.00;;;18.50;99.90;;;;;;5070159;28;20029;-73
2021/08/19 07:07:33;;;;;;;4.28;2.22;;;18.60;99.90;;;;;;5070716;28;20052;-73
2021/08/19 07:10:07;;;;;;;4.72;2.70;;;18.70;99.90;;;;;;5074261;28;20036;-72
2021/08/19 07:12:34;;;;;;;4.00;2.47;;;18.70;99.90;;;;;;5086020;28;20023;-71
2021/08/19 07:15:00;;;;;;;4.55;2.90;;;18.70;99.90;;;;;;5090610;28;20023;-71
2021/08/19 07:17:26;;;;;;;5.30;2.10;;;18.80;99.90;;;;;;5090968;28;20115;-73
2021/08/19 07:19:51;;;;;;;5.10;1.73;;;18.90;99.90;;;;;;5089791;28;20024;-72
2021/08/19 07:22:17;;;;;;;5.80;2.28;;;18.90;99.90;;;;;;5092289;28;20127;-71
2021/08/19 07:24:43;;;;;;;3.03;2.10;;;19.00;99.90;;;;;;5091910;28;20085;-73
2021/08/19 07:27:09;;;;;;;4.43;2.25;;;19.10;99.90;;;;;;5090976;28;20028;-70
2021/08/19 07:29:35;;;;;;;2.00;1.00;;;19.10;99.90;;;;;;5092433;28;20034;-50
2021/08/19 07:32:01;;;;;;;4.13;1.23;;;19.60;99.90;;;;;;5092428;28;20032;-50
2021/08/19 07:34:26;;;;;;;1.67;1.13;;;20.10;99.90;;;;;;5091841;28;20028;-51
2021/08/19 07:36:52;;;;;;;1.95;1.60;;;20.20;99.90;;;;;;5092441;28;20441;-51
2021/08/19 07:39:18;;;;;;;1.65;1.33;;;20.50;99.90;;;;;;5092687;28;20457;-50
2021/08/19 07:41:43;;;;;;;3.50;1.50;;;20.70;99.90;;;;;;5092540;28;20060;-50
2021/08/19 07:44:09;;;;;;;1.73;1.25;;;20.80;99.90;;;;;;5091193;28;20036;-50
2021/08/19 07:46:35;;;;;;;1.60;1.13;;;20.70;99.90;;;;;;5090577;28;20051;-50
2021/08/19 07:49:02;;;;;;;1.70;1.27;;;20.70;99.90;;;;;;5072209;28;20032;-51
2021/08/19 07:51:31;;;;;;;2.83;1.48;;;20.60;99.90;;;;;;5084181;28;20176;-50
2021/08/19 07:53:57;;;;;;;2.08;1.42;;;20.40;99.90;;;;;;5071689;28;20029;-51
2021/08/19 07:56:22;;;;;;;5.95;1.88;;;20.30;99.90;;;;;;5072312;28;20458;-50
2021/08/19 07:58:48;;;;;;;2.78;1.67;;;20.00;99.90;;;;;;5071229;28;20035;-50
2021/08/19 08:01:13;;;;;;;7.80;1.40;;;19.90;99.90;;;;;;5071707;28;20033;-50
2021/08/19 08:03:39;;;;;;;5.22;1.60;;;20.20;99.90;;;;;;5072344;28;20423;-70
2021/08/19 08:06:05;;;;;;;2.22;1.80;;;20.20;99.90;;;;;;5069780;28;20177;-71
2021/08/19 08:08:30;;;;;;;2.25;1.40;;;20.00;99.90;;;;;;5071847;28;20035;-71
2021/08/19 08:10:56;;;;;;;4.05;2.15;;;20.00;99.90;;;;;;5071312;28;20115;-70
2021/08/19 08:13:22;;;;;;;4.03;1.38;;;20.10;99.90;;;;;;5071683;28;20028;-70
2021/08/19 08:15:48;;;;;;;4.22;1.13;;;20.00;99.90;;;;;;5070181;28;20120;-72
2021/08/19 08:18:16;;;;;;;2.28;1.50;;;19.90;99.90;;;;;;5084919;28;20491;-70
2021/08/19 08:20:43;;;;;;;1.88;1.50;;;20.00;99.90;;;;;;5091989;28;20040;-70
2021/08/19 08:23:09;;;;;;;2.08;1.48;;;20.10;99.90;;;;;;5089212;28;20044;-70
2021/08/19 08:25:35;;;;;;;4.70;1.60;;;20.10;99.90;;;;;;5089623;28;20035;-70
2021/08/19 08:28:09;;;;;;;3.92;1.13;;;20.10;99.90;;;;;;5084431;28;20377;-70
2021/08/19 08:30:40;;;;;;;3.45;1.33;;;20.30;99.90;;;;;;5090617;28;20028;-69
2021/08/19 08:33:07;;;;;;;4.28;1.25;;;20.30;99.90;;;;;;5089461;28;20126;-70
2021/08/19 08:35:36;;;;;;;1.60;1.00;;;20.30;99.90;;;;;;5090141;28;20035;-71
2021/08/19 08:38:06;;;;;;;3.38;1.08;;;20.50;99.90;;;;;;5090643;28;20027;-70
2021/08/19 08:40:34;;;;;;;4.35;1.13;;;20.60;99.90;;;;;;5089746;28;20119;-70
2021/08/19 08:43:00;;;;;;;1.98;1.17;;;20.80;99.90;;;;;;5090180;28;20040;-71
2021/08/19 08:45:27;;;;;;;0.73;0.73;;;20.90;99.90;;;;;;5090757;28;20020;-70
2021/08/19 08:47:54;;;;;;;1.83;0.98;;;20.70;99.90;;;;;;5088672;28;20076;-69
2021/08/19 08:50:19;;;;;;;2.00;1.33;;;20.80;99.90;;;;;;5090476;28;20381;-71
2021/08/19 08:52:51;;;;;;;1.35;0.95;;;20.70;99.90;;;;;;5090988;28;20043;-70
2021/08/19 08:55:17;;;;;;;5.28;1.23;;;20.70;99.90;;;;;;5071441;28;20036;-71
2021/08/19 08:57:42;;;;;;;1.98;0.93;;;20.80;99.90;;;;;;5088303;28;20119;-70
2021/08/19 09:00:08;;;;;;;2.58;1.35;;;20.80;99.90;;;;;;5087214;28;20238;-71
2021/08/19 09:02:36;;;;;;;3.08;1.10;;;20.70;99.90;;;;;;5081314;28;20040;-71
2021/08/19 09:05:24;;;;;;;3.83;1.02;;;20.70;99.90;;;;;;5068744;28;20032;-70
2021/08/19 09:07:55;;;;;;;3.55;1.40;;;20.70;99.90;;;;;;5084438;28;20036;-71
2021/08/19 09:10:23;;;;;;;2.10;1.10;;;20.80;99.90;;;;;;5067435;28;20450;-73
2021/08/19 09:12:50;;;;;;;2.58;1.73;;;20.90;99.90;;;;;;5050543;28;20032;-72
2021/08/19 09:15:18;;;;;;;2.05;1.63;;;21.00;99.90;;;;;;5054624;28;20102;-71
2021/08/19 09:17:55;;;;;;;2.20;1.33;;;21.10;99.90;;;;;;5087505;28;20043;-71
2021/08/19 09:20:31;;;;;;;4.75;2.03;;;21.20;99.90;;;;;;5070199;28;20434;-71
2021/08/19 09:22:59;;;;;;;2.28;1.30;;;21.20;99.90;;;;;;5069902;28;20078;-70
2021/08/19 09:25:45;;;;;;;1.50;1.40;;;21.30;99.90;;;;;;5061641;28;20055;-71
2021/08/19 09:28:29;;;;;;;2.45;1.55;;;21.80;99.90;;;;;;5061312;28;20032;-72
2021/08/19 09:31:08;;;;;;;1.50;1.27;;;21.90;99.90;;;;;;5066499;28;20065;-75
2021/08/19 09:33:42;;;;;;;3.75;1.52;;;21.80;99.90;;;;;;5084239;28;20084;-74
2021/08/19 09:36:08;;;;;;;5.75;1.42;;;21.50;99.90;;;;;;5088195;28;20383;-75
2021/08/19 09:38:43;;;;;;;2.65;1.67;;;21.60;99.90;;;;;;5081182;28;20034;-74
2021/08/19 09:41:12;;;;;;;2.28;1.30;;;21.70;99.90;;;;;;5087951;28;20498;-74
2021/08/19 09:43:43;;;;;;;1.95;1.20;;;21.70;99.90;;;;;;5087133;28;20330;-72
2021/08/19 09:46:14;;;;;;;2.65;1.55;;;21.70;99.90;;;;;;5086355;28;20058;-73
2021/08/19 09:48:41;;;;;;;4.00;1.38;;;21.70;99.90;;;;;;5088754;28;20027;-75
2021/08/19 09:51:17;;;;;;;2.50;1.20;;;21.60;99.90;;;;;;5086471;28;20083;-74
2021/08/19 09:53:53;;;;;;;1.63;1.00;;;21.60;99.90;;;;;;5087272;28;20028;-72
2021/08/19 09:56:33;;;;;;;3.38;1.30;;;21.60;99.90;;;;;;5087806;28;20051;-74
2021/08/19 09:59:20;;;;;;;1.42;0.95;;;21.50;99.90;;;;;;5085872;28;20031;-45
2021/08/19 10:01:46;;;;;;;1.95;1.27;;;21.70;99.90;;;;;;5089807;28;20063;-46
2021/08/19 10:04:13;;;;;;;1.52;1.20;;;22.00;99.90;;;;;;5087450;28;20032;-72
2021/08/19 10:06:40;;;;;;;1.85;1.00;;;22.40;99.90;;;;;;5088459;28;20031;-72
2021/08/19 10:09:05;;;;;;;4.78;1.70;;;22.50;99.90;;;;;;5088154;28;20078;-72
2021/08/19 10:11:33;;;;;;;1.42;1.10;;;22.60;99.90;;;;;;5088503;28;20032;-72
2021/08/19 10:14:02;;;;;;;1.70;1.33;;;22.40;99.90;;;;;;5089170;28;20410;-72
2021/08/19 10:16:33;;;;;;;2.15;1.73;;;22.60;99.90;;;;;;5088935;28;20032;-72
2021/08/19 10:19:02;;;;;;;1.73;1.42;;;22.40;99.90;;;;;;5088085;28;20422;-73
2021/08/19 10:21:29;;;;;;;2.22;1.33;;;22.30;99.90;;;;;;5088213;28;20048;-72
2021/08/19 10:23:57;;;;;;;3.72;2.00;;;22.40;99.90;;;;;;5088427;28;20035;-73
2021/08/19 10:26:23;;;;;;;1.08;0.88;;;22.70;99.90;;;;;;5088944;28;20036;-72
2021/08/19 10:28:57;;;;;;;3.10;1.10;;;22.70;99.90;;;;;;5088580;28;20035;-72
2021/08/19 10:31:41;;;;;;;1.08;0.93;;;22.90;99.90;;;;;;5089850;28;20515;-72
2021/08/19 10:34:07;;;;;;;1.42;0.70;;;23.20;99.90;;;;;;5089527;28;20165;-73
2021/08/19 10:36:45;;;;;;;2.33;1.15;;;23.10;99.90;;;;;;5090266;28;20024;-72
2021/08/19 10:39:37;;;;;;;1.10;0.95;;;23.10;99.90;;;;;;5088030;28;20024;-73
2021/08/19 10:42:07;;;;;;;1.02;0.93;;;23.00;99.90;;;;;;5085801;28;20043;-73
2021/08/19 10:44:45;;;;;;;2.22;1.17;;;22.80;99.90;;;;;;5093232;28;20055;-72
2021/08/19 10:47:35;;;;;;;1.38;1.08;;;22.70;99.90;;;;;;5091574;28;20480;-73
2021/08/19 10:50:35;;;;;;;1.75;1.63;;;22.90;99.90;;;;;;5091549;28;20457;-73
2021/08/19 10:53:21;;;;;;;2.15;1.50;;;23.20;99.90;;;;;;5091112;28;20115;-72
2021/08/19 10:55:52;;;;;;;2.88;1.75;;;23.30;99.90;;;;;;5093723;28;20036;-72
2021/08/19 10:58:31;;;;;;;1.83;1.67;;;23.50;99.90;;;;;;5092098;28;20568;-73
2021/08/19 11:01:00;;;;;;;4.03;1.35;;;23.50;99.90;;;;;;5092455;28;20059;-73
2021/08/19 11:03:49;;;;;;;6.20;2.17;;;23.30;99.90;;;;;;5093254;28;20451;-73
2021/08/19 11:06:51;;;;;;;9.38;2.03;;;23.20;99.90;;;;;;5080868;28;20032;-72
2021/08/19 11:09:17;;;;;;;;;;;23.10;99.90;;;;;;5091605;28;20117;-73
2021/08/19 11:11:43;;;;;;;2.25;1.65;;;23.00;99.90;;;;;;5092936;28;19904;-73
2021/08/19 11:14:09;;;;;;;1.80;1.63;;;22.90;99.90;;;;;;5092007;28;20028;-72
2021/08/19 11:16:40;;;;;;;6.63;2.17;;;22.90;99.90;;;;;;5091174;28;20418;-72
2021/08/19 11:19:24;;;;;;;3.03;1.85;;;22.90;99.90;;;;;;5091566;28;20165;-74
2021/08/19 11:21:54;;;;;;;4.28;2.20;;;22.90;99.90;;;;;;5092965;28;20040;-73
2021/08/19 11:24:21;;;;;;;2.50;2.00;;;22.70;99.90;;;;;;5090675;28;20020;-73
2021/08/19 11:27:00;;;;;;;3.88;1.98;;;22.60;99.90;;;;;;5090887;28;20124;-72
2021/08/19 11:29:46;;;;;;;2.25;2.05;;;22.40;99.90;;;;;;5092381;28;20024;-72
2021/08/19 11:32:14;;;;;;;3.28;2.50;;;22.40;99.90;;;;;;5089576;28;20036;-72
2021/08/19 11:34:49;;;;;;;2.50;2.30;;;22.40;99.90;;;;;;5090837;28;20038;-73
2021/08/19 11:37:31;;;;;;;3.28;2.88;;;22.40;99.90;;;;;;5092251;28;20034;-72
2021/08/19 11:39:59;;;;;;;;;;;22.30;99.90;;;;;;5091138;28;20377;-73
2021/08/19 11:42:29;;;;;;;5.93;2.80;;;22.30;99.90;;;;;;5090656;28;19912;-73
2021/08/19 11:45:15;;;;;;;2.80;2.53;;;22.60;99.90;;;;;;5090507;28;20064;-74
2021/08/19 11:47:41;;;;;;;6.07;2.50;;;22.90;99.90;;;;;;5090682;28;20032;-73
2021/08/19 11:50:06;;;;;;;2.63;2.03;;;22.90;99.90;;;;;;5090009;28;20024;-73
2021/08/19 11:52:32;;;;;;;3.22;2.03;;;22.90;99.90;;;;;;5090225;28;20043;-73
2021/08/19 11:54:58;;;;;;;3.58;2.50;;;22.70;99.90;;;;;;5090076;28;20024;-73
2021/08/19 11:57:25;;;;;;;3.22;2.45;;;22.70;99.90;;;;;;5091917;28;20055;-73
2021/08/19 12:00:06;;;;;;;3.90;2.17;;;22.70;99.90;;;;;;5091907;28;20020;-72
2021/08/19 12:02:32;;;;;;;;;;;22.80;99.90;;;;;;5091096;28;20085;-73
2021/08/19 12:05:11;;;;;;;3.55;2.22;;;22.90;99.90;;;;;;5090098;28;19911;-74
2021/08/19 12:07:41;;;;;;;2.70;2.08;;;22.90;99.90;;;;;;5090831;28;20039;-73
2021/08/19 12:10:08;;;;;;;4.63;2.35;;;22.90;99.90;;;;;;5091346;28;20035;-73
2021/08/19 12:12:38;;;;;;;2.97;2.40;;;22.70;99.90;;;;;;5092022;28;20457;-72
2021/08/19 12:15:06;;;;;;;2.55;2.25;;;22.70;99.90;;;;;;5091092;28;20442;-74
2021/08/19 12:17:32;;;;;;;3.83;2.20;;;22.50;99.90;;;;;;5089688;28;20024;-72
2021/08/19 12:20:13;;;;;;;2.60;2.40;;;22.50;99.90;;;;;;5089161;28;20048;-73
2021/08/19 12:22:39;;;;;;;3.28;2.25;;;22.30;99.90;;;;;;5089657;28;20032;-72
2021/08/19 12:25:19;;;;;;;2.78;2.10;;;22.10;99.90;;;;;;5089550;28;20031;-73
2021/08/19 12:27:45;;;;;;;6.95;2.40;;;22.00;99.90;;;;;;5090041;28;20077;-72
2021/08/19 12:30:11;;;;;;;3.70;2.17;;;21.90;99.90;;;;;;5090577;28;20096;-73
2021/08/19 12:32:37;;;;;;;3.05;2.33;;;21.90;99.90;;;;;;5090012;28;20551;-72
2021/08/19 12:35:12;;;;;;;2.65;2.30;;;21.90;99.90;;;;;;5089310;28;20118;-75
2021/08/19 12:37:55;;;;;;;3.83;2.30;;;21.90;99.90;;;;;;5090288;28;20096;-74
2021/08/19 12:40:27;;;;;;;3.58;2.22;;;21.70;99.90;;;;;;5090762;28;20103;-72
2021/08/19 12:43:09;;;;;;;4.32;2.45;;;21.90;99.90;;;;;;5089530;28;20135;-72
2021/08/19 12:45:36;;;;;;;3.78;2.13;;;21.90;99.90;;;;;;5091540;28;20031;-74
2021/08/19 12:48:10;;;;;;;4.45;2.30;;;22.10;99.90;;;;;;5089399;28;20028;-74
2021/08/19 12:50:38;;;;;;;2.60;2.30;;;22.20;99.90;;;;;;5090286;28;20028;-74
2021/08/19 12:53:09;;;;;;;2.30;1.95;;;22.20;99.90;;;;;;5090510;28;20036;-74